sensor_id;sensor_type;location;lat;lon;timestamp;P1;durP1;ratioP1;P2;durP2;ratioP2
66380;SDS011;53177;52.648;1.214;2022-07-06T00:01:06;6.43;;;2.40;;
66380;SDS011;53177;52.648;1.214;2022-07-06T00:03:31;7.03;;;2.70;;
66380;SDS011;53177;52.648;1.214;2022-07-06T00:05:57;6.75;;;2.60;;
66380;SDS011;53177;52.648;1.214;2022-07-06T00:08:22;6.30;;;2.43;;
66380;SDS011;53177;52.648;1.214;2022-07-06T00:10:47;5.07;;;2.20;;
66380;SDS011;53177;52.648;1.214;2022-07-06T00:13:13;6.13;;;2.40;;
66380;SDS011;53177;52.648;1.214;2022-07-06T00:15:38;7.00;;;2.47;;
66380;SDS011;53177;52.648;1.214;2022-07-06T00:18:03;7.03;;;2.33;;
66380;SDS011;53177;52.648;1.214;2022-07-06T00:20:29;7.73;;;2.53;;
66380;SDS011;53177;52.648;1.214;2022-07-06T00:22:54;7.73;;;2.20;;
66380;SDS011;53177;52.648;1.214;2022-07-06T00:25:20;5.20;;;2.20;;
66380;SDS011;53177;52.648;1.214;2022-07-06T00:27:45;5.43;;;2.07;;
66380;SDS011;53177;52.648;1.214;2022-07-06T00:30:11;4.97;;;2.10;;
66380;SDS011;53177;52.648;1.214;2022-07-06T00:32:37;6.20;;;2.40;;
66380;SDS011;53177;52.648;1.214;2022-07-06T00:35:03;5.97;;;2.37;;
66380;SDS011;53177;52.648;1.214;2022-07-06T00:37:29;5.97;;;2.05;;
66380;SDS011;53177;52.648;1.214;2022-07-06T00:39:54;6.43;;;2.20;;
66380;SDS011;53177;52.648;1.214;2022-07-06T00:42:19;7.50;;;2.50;;
66380;SDS011;53177;52.648;1.214;2022-07-06T00:44:45;7.70;;;2.20;;
66380;SDS011;53177;52.648;1.214;2022-07-06T00:47:10;5.90;;;2.27;;
66380;SDS011;53177;52.648;1.214;2022-07-06T00:49:35;6.13;;;2.70;;
66380;SDS011;53177;52.648;1.214;2022-07-06T00:52:19;7.22;;;2.40;;
66380;SDS011;53177;52.648;1.214;2022-07-06T00:54:45;6.47;;;2.80;;
66380;SDS011;53177;52.648;1.214;2022-07-06T00:57:11;8.40;;;2.27;;
66380;SDS011;53177;52.648;1.214;2022-07-06T00:59:37;7.53;;;2.60;;
66380;SDS011;53177;52.648;1.214;2022-07-06T01:02:02;5.73;;;2.40;;
66380;SDS011;53177;52.648;1.214;2022-07-06T01:04:28;6.87;;;2.30;;
66380;SDS011;53177;52.648;1.214;2022-07-06T01:06:53;7.15;;;2.40;;
66380;SDS011;53177;52.648;1.214;2022-07-06T01:09:19;6.63;;;2.10;;
66380;SDS011;53177;52.648;1.214;2022-07-06T01:11:44;6.07;;;2.47;;
66380;SDS011;53177;52.648;1.214;2022-07-06T01:14:10;7.30;;;2.13;;
66380;SDS011;53177;52.648;1.214;2022-07-06T01:16:37;6.40;;;2.22;;
66380;SDS011;53177;52.648;1.214;2022-07-06T01:19:02;7.37;;;2.83;;
66380;SDS011;53177;52.648;1.214;2022-07-06T01:21:27;6.65;;;2.47;;
66380;SDS011;53177;52.648;1.214;2022-07-06T01:23:53;5.87;;;2.30;;
66380;SDS011;53177;52.648;1.214;2022-07-06T01:26:19;6.60;;;2.57;;
66380;SDS011;53177;52.648;1.214;2022-07-06T01:28:46;8.77;;;2.80;;
66380;SDS011;53177;52.648;1.214;2022-07-06T01:31:18;5.80;;;2.30;;
66380;SDS011;53177;52.648;1.214;2022-07-06T01:33:46;5.95;;;2.35;;
66380;SDS011;53177;52.648;1.214;2022-07-06T01:36:11;5.30;;;2.20;;
66380;SDS011;53177;52.648;1.214;2022-07-06T01:41:19;6.15;;;2.60;;
66380;SDS011;53177;52.648;1.214;2022-07-06T01:43:45;5.82;;;2.35;;
66380;SDS011;53177;52.648;1.214;2022-07-06T01:46:11;7.90;;;2.60;;
66380;SDS011;53177;52.648;1.214;2022-07-06T01:48:37;8.48;;;2.60;;
66380;SDS011;53177;52.648;1.214;2022-07-06T01:51:03;5.43;;;2.43;;
66380;SDS011;53177;52.648;1.214;2022-07-06T01:53:29;6.45;;;2.75;;
66380;SDS011;53177;52.648;1.214;2022-07-06T01:55:55;7.67;;;2.60;;
66380;SDS011;53177;52.648;1.214;2022-07-06T01:58:20;7.35;;;2.90;;
66380;SDS011;53177;52.648;1.214;2022-07-06T02:00:46;8.30;;;2.70;;
66380;SDS011;53177;52.648;1.214;2022-07-06T02:03:11;6.53;;;2.87;;
66380;SDS011;53177;52.648;1.214;2022-07-06T02:05:36;8.53;;;2.73;;
66380;SDS011;53177;52.648;1.214;2022-07-06T02:08:02;8.43;;;2.80;;
66380;SDS011;53177;52.648;1.214;2022-07-06T02:10:27;6.97;;;2.93;;
66380;SDS011;53177;52.648;1.214;2022-07-06T02:12:52;8.00;;;3.27;;
66380;SDS011;53177;52.648;1.214;2022-07-06T02:15:18;6.17;;;3.07;;
66380;SDS011;53177;52.648;1.214;2022-07-06T02:17:43;7.03;;;2.80;;
66380;SDS011;53177;52.648;1.214;2022-07-06T02:20:09;7.37;;;3.00;;
66380;SDS011;53177;52.648;1.214;2022-07-06T02:22:34;7.63;;;3.35;;
66380;SDS011;53177;52.648;1.214;2022-07-06T02:25:00;7.80;;;3.40;;
66380;SDS011;53177;52.648;1.214;2022-07-06T02:27:25;8.67;;;3.20;;
66380;SDS011;53177;52.648;1.214;2022-07-06T02:29:51;7.05;;;3.20;;
66380;SDS011;53177;52.648;1.214;2022-07-06T02:32:16;5.37;;;2.67;;
66380;SDS011;53177;52.648;1.214;2022-07-06T02:34:42;9.77;;;3.33;;
66380;SDS011;53177;52.648;1.214;2022-07-06T02:37:08;7.05;;;3.30;;
66380;SDS011;53177;52.648;1.214;2022-07-06T02:39:33;9.77;;;3.70;;
66380;SDS011;53177;52.648;1.214;2022-07-06T02:41:59;6.63;;;2.80;;
66380;SDS011;53177;52.648;1.214;2022-07-06T02:44:24;9.43;;;3.37;;
66380;SDS011;53177;52.648;1.214;2022-07-06T02:46:49;7.40;;;3.40;;
66380;SDS011;53177;52.648;1.214;2022-07-06T02:49:15;6.07;;;2.60;;
66380;SDS011;53177;52.648;1.214;2022-07-06T02:51:40;8.17;;;3.20;;
66380;SDS011;53177;52.648;1.214;2022-07-06T02:54:06;9.20;;;3.60;;
66380;SDS011;53177;52.648;1.214;2022-07-06T02:56:31;11.43;;;3.70;;
66380;SDS011;53177;52.648;1.214;2022-07-06T02:58:56;8.38;;;3.75;;
66380;SDS011;53177;52.648;1.214;2022-07-06T03:01:22;8.47;;;3.10;;
66380;SDS011;53177;52.648;1.214;2022-07-06T03:03:47;10.00;;;3.87;;
66380;SDS011;53177;52.648;1.214;2022-07-06T03:06:14;6.93;;;3.60;;
66380;SDS011;53177;52.648;1.214;2022-07-06T03:08:41;7.75;;;3.42;;
66380;SDS011;53177;52.648;1.214;2022-07-06T03:11:08;9.70;;;3.60;;
66380;SDS011;53177;52.648;1.214;2022-07-06T03:13:35;6.90;;;3.05;;
66380;SDS011;53177;52.648;1.214;2022-07-06T03:16:00;8.20;;;3.33;;
66380;SDS011;53177;52.648;1.214;2022-07-06T03:18:26;8.87;;;3.80;;
66380;SDS011;53177;52.648;1.214;2022-07-06T03:20:51;8.10;;;3.50;;
66380;SDS011;53177;52.648;1.214;2022-07-06T03:23:17;7.53;;;3.10;;
66380;SDS011;53177;52.648;1.214;2022-07-06T03:25:43;7.83;;;3.30;;
66380;SDS011;53177;52.648;1.214;2022-07-06T03:28:09;7.65;;;3.65;;
66380;SDS011;53177;52.648;1.214;2022-07-06T03:30:34;8.10;;;3.57;;
66380;SDS011;53177;52.648;1.214;2022-07-06T03:33:00;8.97;;;3.60;;
66380;SDS011;53177;52.648;1.214;2022-07-06T03:35:25;6.90;;;3.70;;
66380;SDS011;53177;52.648;1.214;2022-07-06T03:37:50;8.10;;;3.13;;
66380;SDS011;53177;52.648;1.214;2022-07-06T03:40:16;8.00;;;3.50;;
66380;SDS011;53177;52.648;1.214;2022-07-06T03:42:42;8.25;;;3.78;;
66380;SDS011;53177;52.648;1.214;2022-07-06T03:45:08;8.87;;;3.93;;
66380;SDS011;53177;52.648;1.214;2022-07-06T03:47:34;7.90;;;3.90;;
66380;SDS011;53177;52.648;1.214;2022-07-06T03:49:59;9.03;;;3.77;;
66380;SDS011;53177;52.648;1.214;2022-07-06T03:52:24;9.82;;;4.10;;
66380;SDS011;53177;52.648;1.214;2022-07-06T03:54:50;9.07;;;3.70;;
66380;SDS011;53177;52.648;1.214;2022-07-06T03:57:15;7.13;;;3.33;;
66380;SDS011;53177;52.648;1.214;2022-07-06T03:59:41;9.15;;;4.10;;
66380;SDS011;53177;52.648;1.214;2022-07-06T04:02:07;9.85;;;4.00;;
66380;SDS011;53177;52.648;1.214;2022-07-06T04:04:35;7.30;;;3.47;;
66380;SDS011;53177;52.648;1.214;2022-07-06T04:07:01;9.25;;;4.10;;
66380;SDS011;53177;52.648;1.214;2022-07-06T04:09:26;9.40;;;3.90;;
66380;SDS011;53177;52.648;1.214;2022-07-06T04:11:51;8.33;;;3.87;;
66380;SDS011;53177;52.648;1.214;2022-07-06T04:14:18;9.75;;;3.70;;
66380;SDS011;53177;52.648;1.214;2022-07-06T04:16:43;14.43;;;4.00;;
66380;SDS011;53177;52.648;1.214;2022-07-06T04:19:09;8.03;;;3.43;;
66380;SDS011;53177;52.648;1.214;2022-07-06T04:21:34;7.68;;;3.47;;
66380;SDS011;53177;52.648;1.214;2022-07-06T04:24:00;9.23;;;4.20;;
66380;SDS011;53177;52.648;1.214;2022-07-06T04:26:25;8.50;;;4.03;;
66380;SDS011;53177;52.648;1.214;2022-07-06T04:28:51;8.98;;;4.13;;
66380;SDS011;53177;52.648;1.214;2022-07-06T04:31:16;8.80;;;4.00;;
66380;SDS011;53177;52.648;1.214;2022-07-06T04:33:42;9.70;;;3.57;;
66380;SDS011;53177;52.648;1.214;2022-07-06T04:36:10;8.85;;;3.83;;
66380;SDS011;53177;52.648;1.214;2022-07-06T04:38:36;11.03;;;3.97;;
66380;SDS011;53177;52.648;1.214;2022-07-06T04:41:01;8.93;;;3.80;;
66380;SDS011;53177;52.648;1.214;2022-07-06T04:43:27;9.37;;;4.03;;
66380;SDS011;53177;52.648;1.214;2022-07-06T04:45:53;10.70;;;4.00;;
66380;SDS011;53177;52.648;1.214;2022-07-06T04:48:18;11.73;;;4.80;;
66380;SDS011;53177;52.648;1.214;2022-07-06T04:50:43;17.00;;;5.45;;
66380;SDS011;53177;52.648;1.214;2022-07-06T04:53:09;12.03;;;5.20;;
66380;SDS011;53177;52.648;1.214;2022-07-06T04:55:34;16.87;;;6.33;;
66380;SDS011;53177;52.648;1.214;2022-07-06T04:58:00;14.27;;;5.03;;
66380;SDS011;53177;52.648;1.214;2022-07-06T05:00:25;12.25;;;4.80;;
66380;SDS011;53177;52.648;1.214;2022-07-06T05:02:50;7.37;;;3.60;;
66380;SDS011;53177;52.648;1.214;2022-07-06T05:05:16;10.67;;;4.03;;
66380;SDS011;53177;52.648;1.214;2022-07-06T05:07:41;10.80;;;4.03;;
66380;SDS011;53177;52.648;1.214;2022-07-06T05:10:08;12.83;;;4.10;;
66380;SDS011;53177;52.648;1.214;2022-07-06T05:12:34;10.98;;;4.20;;
66380;SDS011;53177;52.648;1.214;2022-07-06T05:15:00;13.45;;;4.78;;
66380;SDS011;53177;52.648;1.214;2022-07-06T05:17:25;8.63;;;3.90;;
66380;SDS011;53177;52.648;1.214;2022-07-06T05:19:51;8.57;;;3.90;;
66380;SDS011;53177;52.648;1.214;2022-07-06T05:22:17;8.55;;;3.60;;
66380;SDS011;53177;52.648;1.214;2022-07-06T05:24:42;10.40;;;3.70;;
66380;SDS011;53177;52.648;1.214;2022-07-06T05:27:07;9.37;;;4.00;;
66380;SDS011;53177;52.648;1.214;2022-07-06T05:29:33;8.27;;;3.78;;
66380;SDS011;53177;52.648;1.214;2022-07-06T05:31:58;8.63;;;3.50;;
66380;SDS011;53177;52.648;1.214;2022-07-06T05:34:23;12.13;;;4.10;;
66380;SDS011;53177;52.648;1.214;2022-07-06T05:36:49;10.30;;;3.40;;
66380;SDS011;53177;52.648;1.214;2022-07-06T05:39:14;9.90;;;3.87;;
66380;SDS011;53177;52.648;1.214;2022-07-06T05:41:44;8.15;;;3.53;;
66380;SDS011;53177;52.648;1.214;2022-07-06T05:44:10;10.85;;;3.80;;
66380;SDS011;53177;52.648;1.214;2022-07-06T05:46:35;10.60;;;3.60;;
66380;SDS011;53177;52.648;1.214;2022-07-06T05:49:01;7.60;;;3.50;;
66380;SDS011;53177;52.648;1.214;2022-07-06T05:51:44;8.30;;;3.22;;
66380;SDS011;53177;52.648;1.214;2022-07-06T05:54:10;7.63;;;2.73;;
66380;SDS011;53177;52.648;1.214;2022-07-06T05:56:35;7.33;;;2.80;;
66380;SDS011;53177;52.648;1.214;2022-07-06T05:59:00;7.10;;;2.93;;
66380;SDS011;53177;52.648;1.214;2022-07-06T06:01:26;8.53;;;3.40;;
66380;SDS011;53177;52.648;1.214;2022-07-06T06:03:51;12.43;;;3.85;;
66380;SDS011;53177;52.648;1.214;2022-07-06T06:06:16;7.73;;;2.90;;
66380;SDS011;53177;52.648;1.214;2022-07-06T06:08:42;9.63;;;3.40;;
66380;SDS011;53177;52.648;1.214;2022-07-06T06:11:07;8.47;;;3.00;;
66380;SDS011;53177;52.648;1.214;2022-07-06T06:13:33;10.57;;;3.30;;
66380;SDS011;53177;52.648;1.214;2022-07-06T06:15:58;6.70;;;3.07;;
66380;SDS011;53177;52.648;1.214;2022-07-06T06:18:24;6.97;;;2.77;;
66380;SDS011;53177;52.648;1.214;2022-07-06T06:20:49;6.87;;;2.83;;
66380;SDS011;53177;52.648;1.214;2022-07-06T06:23:14;7.73;;;2.93;;
66380;SDS011;53177;52.648;1.214;2022-07-06T06:25:40;7.47;;;2.80;;
66380;SDS011;53177;52.648;1.214;2022-07-06T06:28:06;7.97;;;2.60;;
66380;SDS011;53177;52.648;1.214;2022-07-06T06:30:33;7.13;;;2.72;;
66380;SDS011;53177;52.648;1.214;2022-07-06T06:35:32;8.68;;;3.00;;
66380;SDS011;53177;52.648;1.214;2022-07-06T06:37:57;9.67;;;3.20;;
66380;SDS011;53177;52.648;1.214;2022-07-06T06:40:23;9.50;;;3.10;;
66380;SDS011;53177;52.648;1.214;2022-07-06T06:42:49;9.32;;;3.58;;
66380;SDS011;53177;52.648;1.214;2022-07-06T06:45:14;9.80;;;3.13;;
66380;SDS011;53177;52.648;1.214;2022-07-06T06:47:40;11.50;;;3.30;;
66380;SDS011;53177;52.648;1.214;2022-07-06T06:50:05;9.30;;;3.23;;
66380;SDS011;53177;52.648;1.214;2022-07-06T06:52:31;10.47;;;3.53;;
66380;SDS011;53177;52.648;1.214;2022-07-06T06:54:57;12.40;;;3.50;;
66380;SDS011;53177;52.648;1.214;2022-07-06T06:57:23;17.27;;;3.63;;
66380;SDS011;53177;52.648;1.214;2022-07-06T06:59:48;10.77;;;3.00;;
66380;SDS011;53177;52.648;1.214;2022-07-06T07:02:14;9.95;;;2.90;;
66380;SDS011;53177;52.648;1.214;2022-07-06T07:04:39;11.57;;;3.73;;
66380;SDS011;53177;52.648;1.214;2022-07-06T07:07:04;9.20;;;2.67;;
66380;SDS011;53177;52.648;1.214;2022-07-06T07:09:30;10.43;;;2.93;;
66380;SDS011;53177;52.648;1.214;2022-07-06T07:11:55;6.60;;;2.50;;
66380;SDS011;53177;52.648;1.214;2022-07-06T07:14:21;8.27;;;2.33;;
66380;SDS011;53177;52.648;1.214;2022-07-06T07:16:46;10.17;;;2.60;;
66380;SDS011;53177;52.648;1.214;2022-07-06T07:19:12;6.33;;;2.30;;
66380;SDS011;53177;52.648;1.214;2022-07-06T07:21:37;8.75;;;2.40;;
66380;SDS011;53177;52.648;1.214;2022-07-06T07:24:03;8.50;;;2.77;;
66380;SDS011;53177;52.648;1.214;2022-07-06T07:26:28;9.53;;;2.63;;
66380;SDS011;53177;52.648;1.214;2022-07-06T07:28:54;7.83;;;2.30;;
66380;SDS011;53177;52.648;1.214;2022-07-06T07:31:19;6.20;;;2.20;;
66380;SDS011;53177;52.648;1.214;2022-07-06T07:33:44;8.07;;;2.30;;
66380;SDS011;53177;52.648;1.214;2022-07-06T07:36:10;8.73;;;2.37;;
66380;SDS011;53177;52.648;1.214;2022-07-06T07:38:35;8.13;;;2.10;;
66380;SDS011;53177;52.648;1.214;2022-07-06T07:41:01;8.50;;;2.40;;
66380;SDS011;53177;52.648;1.214;2022-07-06T07:43:26;8.63;;;2.13;;
66380;SDS011;53177;52.648;1.214;2022-07-06T07:45:51;8.93;;;2.60;;
66380;SDS011;53177;52.648;1.214;2022-07-06T07:48:17;9.23;;;2.80;;
66380;SDS011;53177;52.648;1.214;2022-07-06T07:50:42;5.90;;;2.23;;
66380;SDS011;53177;52.648;1.214;2022-07-06T07:53:08;6.17;;;2.57;;
66380;SDS011;53177;52.648;1.214;2022-07-06T07:55:33;7.60;;;2.50;;
66380;SDS011;53177;52.648;1.214;2022-07-06T07:57:59;8.13;;;2.90;;
66380;SDS011;53177;52.648;1.214;2022-07-06T08:00:25;7.00;;;3.20;;
66380;SDS011;53177;52.648;1.214;2022-07-06T08:02:53;9.50;;;2.92;;
66380;SDS011;53177;52.648;1.214;2022-07-06T08:05:19;8.55;;;2.75;;
66380;SDS011;53177;52.648;1.214;2022-07-06T08:07:45;7.50;;;3.00;;
66380;SDS011;53177;52.648;1.214;2022-07-06T08:10:10;8.63;;;2.90;;
66380;SDS011;53177;52.648;1.214;2022-07-06T08:12:37;8.77;;;2.95;;
66380;SDS011;53177;52.648;1.214;2022-07-06T08:15:03;7.10;;;2.92;;
66380;SDS011;53177;52.648;1.214;2022-07-06T08:17:30;7.63;;;3.07;;
66380;SDS011;53177;52.648;1.214;2022-07-06T08:19:55;10.48;;;3.60;;
66380;SDS011;53177;52.648;1.214;2022-07-06T08:22:21;7.32;;;2.80;;
66380;SDS011;53177;52.648;1.214;2022-07-06T08:24:47;10.93;;;3.60;;
66380;SDS011;53177;52.648;1.214;2022-07-06T08:27:13;12.47;;;5.23;;
66380;SDS011;53177;52.648;1.214;2022-07-06T08:29:38;11.83;;;5.00;;
66380;SDS011;53177;52.648;1.214;2022-07-06T08:32:04;8.70;;;3.60;;
66380;SDS011;53177;52.648;1.214;2022-07-06T08:34:29;9.98;;;3.70;;
66380;SDS011;53177;52.648;1.214;2022-07-06T08:36:55;9.77;;;3.70;;
66380;SDS011;53177;52.648;1.214;2022-07-06T08:39:20;10.33;;;3.87;;
66380;SDS011;53177;52.648;1.214;2022-07-06T08:41:46;8.23;;;3.40;;
66380;SDS011;53177;52.648;1.214;2022-07-06T08:44:16;7.43;;;2.83;;
66380;SDS011;53177;52.648;1.214;2022-07-06T08:46:41;8.55;;;3.60;;
66380;SDS011;53177;52.648;1.214;2022-07-06T08:49:08;9.55;;;3.70;;
66380;SDS011;53177;52.648;1.214;2022-07-06T08:51:37;8.18;;;3.20;;
66380;SDS011;53177;52.648;1.214;2022-07-06T08:54:03;12.40;;;4.57;;
66380;SDS011;53177;52.648;1.214;2022-07-06T08:56:29;16.13;;;5.72;;
66380;SDS011;53177;52.648;1.214;2022-07-06T08:58:55;12.02;;;4.68;;
66380;SDS011;53177;52.648;1.214;2022-07-06T09:01:21;30.50;;;10.43;;
66380;SDS011;53177;52.648;1.214;2022-07-06T09:03:48;9.37;;;3.90;;
66380;SDS011;53177;52.648;1.214;2022-07-06T09:06:16;8.88;;;3.47;;
66380;SDS011;53177;52.648;1.214;2022-07-06T09:08:44;9.10;;;3.30;;
66380;SDS011;53177;52.648;1.214;2022-07-06T09:11:11;8.52;;;3.58;;
66380;SDS011;53177;52.648;1.214;2022-07-06T09:13:37;8.93;;;3.50;;
66380;SDS011;53177;52.648;1.214;2022-07-06T09:16:13;7.68;;;3.30;;
66380;SDS011;53177;52.648;1.214;2022-07-06T09:18:39;7.05;;;3.40;;
66380;SDS011;53177;52.648;1.214;2022-07-06T09:21:08;8.40;;;3.00;;
66380;SDS011;53177;52.648;1.214;2022-07-06T09:23:34;7.22;;;2.60;;
66380;SDS011;53177;52.648;1.214;2022-07-06T09:26:06;14.38;;;4.70;;
66380;SDS011;53177;52.648;1.214;2022-07-06T09:28:44;8.13;;;3.17;;
66380;SDS011;53177;52.648;1.214;2022-07-06T09:31:10;8.90;;;3.92;;
66380;SDS011;53177;52.648;1.214;2022-07-06T09:33:36;6.88;;;2.85;;
66380;SDS011;53177;52.648;1.214;2022-07-06T09:36:03;8.57;;;3.10;;
66380;SDS011;53177;52.648;1.214;2022-07-06T09:38:30;6.78;;;2.97;;
66380;SDS011;53177;52.648;1.214;2022-07-06T09:40:56;5.50;;;2.90;;
66380;SDS011;53177;52.648;1.214;2022-07-06T09:43:22;7.60;;;3.00;;
66380;SDS011;53177;52.648;1.214;2022-07-06T09:45:49;6.15;;;3.08;;
66380;SDS011;53177;52.648;1.214;2022-07-06T09:48:28;7.40;;;2.83;;
66380;SDS011;53177;52.648;1.214;2022-07-06T09:50:57;7.13;;;3.25;;
66380;SDS011;53177;52.648;1.214;2022-07-06T09:53:24;9.27;;;4.00;;
66380;SDS011;53177;52.648;1.214;2022-07-06T09:55:53;9.70;;;5.00;;
66380;SDS011;53177;52.648;1.214;2022-07-06T09:58:20;10.52;;;4.60;;
66380;SDS011;53177;52.648;1.214;2022-07-06T10:00:47;7.65;;;4.13;;
66380;SDS011;53177;52.648;1.214;2022-07-06T10:03:15;8.45;;;4.40;;
66380;SDS011;53177;52.648;1.214;2022-07-06T10:05:42;10.87;;;4.30;;
66380;SDS011;53177;52.648;1.214;2022-07-06T10:08:11;7.68;;;3.40;;
66380;SDS011;53177;52.648;1.214;2022-07-06T10:10:39;7.00;;;3.42;;
66380;SDS011;53177;52.648;1.214;2022-07-06T10:13:07;6.35;;;3.00;;
66380;SDS011;53177;52.648;1.214;2022-07-06T10:15:34;6.50;;;2.63;;
66380;SDS011;53177;52.648;1.214;2022-07-06T10:18:05;5.67;;;2.60;;
66380;SDS011;53177;52.648;1.214;2022-07-06T10:20:32;5.13;;;2.45;;
66380;SDS011;53177;52.648;1.214;2022-07-06T10:23:02;5.40;;;2.30;;
66380;SDS011;53177;52.648;1.214;2022-07-06T10:25:28;6.50;;;2.75;;
66380;SDS011;53177;52.648;1.214;2022-07-06T10:27:54;8.15;;;3.67;;
66380;SDS011;53177;52.648;1.214;2022-07-06T10:30:21;8.33;;;3.20;;
66380;SDS011;53177;52.648;1.214;2022-07-06T10:32:48;5.13;;;2.60;;
66380;SDS011;53177;52.648;1.214;2022-07-06T10:35:16;6.72;;;3.33;;
66380;SDS011;53177;52.648;1.214;2022-07-06T10:37:43;6.95;;;3.17;;
66380;SDS011;53177;52.648;1.214;2022-07-06T10:40:10;8.53;;;4.07;;
66380;SDS011;53177;52.648;1.214;2022-07-06T10:50:38;9.75;;;3.90;;
66380;SDS011;53177;52.648;1.214;2022-07-06T10:53:13;7.17;;;3.67;;
66380;SDS011;53177;52.648;1.214;2022-07-06T10:55:47;6.85;;;2.90;;
66380;SDS011;53177;52.648;1.214;2022-07-06T10:58:15;6.53;;;2.67;;
66380;SDS011;53177;52.648;1.214;2022-07-06T11:01:00;7.70;;;2.30;;
66380;SDS011;53177;52.648;1.214;2022-07-06T11:03:32;5.03;;;2.40;;
66380;SDS011;53177;52.648;1.214;2022-07-06T11:06:12;5.55;;;2.38;;
66380;SDS011;53177;52.648;1.214;2022-07-06T11:14:04;7.82;;;2.30;;
66380;SDS011;53177;52.648;1.214;2022-07-06T11:19:22;4.95;;;2.10;;
66380;SDS011;53177;52.648;1.214;2022-07-06T11:24:25;6.05;;;2.47;;
66380;SDS011;53177;52.648;1.214;2022-07-06T11:26:52;4.78;;;2.05;;
66380;SDS011;53177;52.648;1.214;2022-07-06T11:29:20;6.90;;;2.53;;
66380;SDS011;53177;52.648;1.214;2022-07-06T11:31:47;7.05;;;3.38;;
66380;SDS011;53177;52.648;1.214;2022-07-06T11:34:25;5.57;;;2.80;;
66380;SDS011;53177;52.648;1.214;2022-07-06T11:36:58;7.18;;;3.10;;
66380;SDS011;53177;52.648;1.214;2022-07-06T11:39:29;4.53;;;2.20;;
66380;SDS011;53177;52.648;1.214;2022-07-06T11:41:56;5.87;;;1.90;;
66380;SDS011;53177;52.648;1.214;2022-07-06T11:44:22;5.10;;;2.40;;
66380;SDS011;53177;52.648;1.214;2022-07-06T11:46:48;6.57;;;2.42;;
66380;SDS011;53177;52.648;1.214;2022-07-06T11:49:15;5.33;;;2.23;;
66380;SDS011;53177;52.648;1.214;2022-07-06T11:51:41;5.00;;;2.35;;
66380;SDS011;53177;52.648;1.214;2022-07-06T11:54:08;4.95;;;2.28;;
66380;SDS011;53177;52.648;1.214;2022-07-06T11:56:35;5.00;;;2.40;;
66380;SDS011;53177;52.648;1.214;2022-07-06T11:59:01;6.33;;;2.50;;
66380;SDS011;53177;52.648;1.214;2022-07-06T12:01:27;5.10;;;2.30;;
66380;SDS011;53177;52.648;1.214;2022-07-06T12:03:57;5.03;;;2.00;;
66380;SDS011;53177;52.648;1.214;2022-07-06T12:06:24;5.82;;;2.13;;
66380;SDS011;53177;52.648;1.214;2022-07-06T12:08:51;5.07;;;2.10;;
66380;SDS011;53177;52.648;1.214;2022-07-06T12:11:32;5.13;;;1.88;;
66380;SDS011;53177;52.648;1.214;2022-07-06T12:14:03;4.13;;;1.80;;
66380;SDS011;53177;52.648;1.214;2022-07-06T12:16:38;4.53;;;2.00;;
66380;SDS011;53177;52.648;1.214;2022-07-06T12:19:05;5.53;;;1.73;;
66380;SDS011;53177;52.648;1.214;2022-07-06T12:21:32;6.15;;;1.70;;
66380;SDS011;53177;52.648;1.214;2022-07-06T12:23:59;4.47;;;1.50;;
66380;SDS011;53177;52.648;1.214;2022-07-06T12:26:25;5.33;;;1.50;;
66380;SDS011;53177;52.648;1.214;2022-07-06T12:29:02;3.85;;;1.50;;
66380;SDS011;53177;52.648;1.214;2022-07-06T12:31:40;5.13;;;1.55;;
66380;SDS011;53177;52.648;1.214;2022-07-06T12:34:14;4.27;;;1.87;;
66380;SDS011;53177;52.648;1.214;2022-07-06T12:36:56;4.10;;;1.77;;
66380;SDS011;53177;52.648;1.214;2022-07-06T12:39:27;5.88;;;2.00;;
66380;SDS011;53177;52.648;1.214;2022-07-06T12:42:01;6.78;;;2.40;;
66380;SDS011;53177;52.648;1.214;2022-07-06T12:44:28;5.75;;;3.20;;
66380;SDS011;53177;52.648;1.214;2022-07-06T12:47:06;6.93;;;3.07;;
66380;SDS011;53177;52.648;1.214;2022-07-06T12:49:34;6.07;;;3.17;;
66380;SDS011;53177;52.648;1.214;2022-07-06T12:54:46;7.35;;;3.50;;
66380;SDS011;53177;52.648;1.214;2022-07-06T13:02:31;5.90;;;2.70;;
66380;SDS011;53177;52.648;1.214;2022-07-06T13:05:06;5.45;;;3.03;;
66380;SDS011;53177;52.648;1.214;2022-07-06T13:07:35;5.32;;;2.80;;
66380;SDS011;53177;52.648;1.214;2022-07-06T13:10:05;5.75;;;2.83;;
66380;SDS011;53177;52.648;1.214;2022-07-06T13:12:33;6.40;;;2.63;;
66380;SDS011;53177;52.648;1.214;2022-07-06T13:14:59;4.93;;;2.20;;
66380;SDS011;53177;52.648;1.214;2022-07-06T13:17:24;6.47;;;2.40;;
66380;SDS011;53177;52.648;1.214;2022-07-06T13:19:50;5.13;;;2.40;;
66380;SDS011;53177;52.648;1.214;2022-07-06T13:22:16;4.80;;;2.40;;
66380;SDS011;53177;52.648;1.214;2022-07-06T13:24:42;4.13;;;2.10;;
66380;SDS011;53177;52.648;1.214;2022-07-06T13:27:08;4.43;;;2.20;;
66380;SDS011;53177;52.648;1.214;2022-07-06T13:29:34;6.35;;;2.67;;
66380;SDS011;53177;52.648;1.214;2022-07-06T13:32:00;5.10;;;2.47;;
66380;SDS011;53177;52.648;1.214;2022-07-06T13:34:25;4.23;;;1.90;;
66380;SDS011;53177;52.648;1.214;2022-07-06T13:36:51;4.93;;;1.83;;
66380;SDS011;53177;52.648;1.214;2022-07-06T13:39:16;4.47;;;2.00;;
66380;SDS011;53177;52.648;1.214;2022-07-06T13:41:42;4.82;;;1.77;;
66380;SDS011;53177;52.648;1.214;2022-07-06T13:44:14;4.63;;;1.80;;
66380;SDS011;53177;52.648;1.214;2022-07-06T13:46:40;4.80;;;1.50;;
66380;SDS011;53177;52.648;1.214;2022-07-06T13:49:05;5.23;;;1.70;;
66380;SDS011;53177;52.648;1.214;2022-07-06T13:51:31;4.15;;;1.50;;
66380;SDS011;53177;52.648;1.214;2022-07-06T13:54:00;3.73;;;1.67;;
66380;SDS011;53177;52.648;1.214;2022-07-06T13:56:27;4.13;;;1.47;;
66380;SDS011;53177;52.648;1.214;2022-07-06T13:58:53;4.10;;;1.30;;
66380;SDS011;53177;52.648;1.214;2022-07-06T14:01:19;3.72;;;1.10;;
66380;SDS011;53177;52.648;1.214;2022-07-06T14:03:45;3.28;;;1.02;;
66380;SDS011;53177;52.648;1.214;2022-07-06T14:06:10;5.30;;;1.30;;
66380;SDS011;53177;52.648;1.214;2022-07-06T14:08:37;6.13;;;1.07;;
66380;SDS011;53177;52.648;1.214;2022-07-06T14:11:04;2.95;;;1.00;;
66380;SDS011;53177;52.648;1.214;2022-07-06T14:13:30;3.75;;;0.90;;
66380;SDS011;53177;52.648;1.214;2022-07-06T14:15:56;4.10;;;1.00;;
66380;SDS011;53177;52.648;1.214;2022-07-06T14:18:22;4.37;;;1.10;;
66380;SDS011;53177;52.648;1.214;2022-07-06T14:20:47;6.37;;;1.20;;
66380;SDS011;53177;52.648;1.214;2022-07-06T14:23:14;6.53;;;1.17;;
66380;SDS011;53177;52.648;1.214;2022-07-06T14:25:43;3.50;;;1.05;;
66380;SDS011;53177;52.648;1.214;2022-07-06T14:28:09;3.92;;;1.00;;
66380;SDS011;53177;52.648;1.214;2022-07-06T14:30:36;3.65;;;1.10;;
66380;SDS011;53177;52.648;1.214;2022-07-06T14:33:05;3.70;;;1.20;;
66380;SDS011;53177;52.648;1.214;2022-07-06T14:35:33;3.23;;;1.17;;
66380;SDS011;53177;52.648;1.214;2022-07-06T14:38:05;5.18;;;1.20;;
66380;SDS011;53177;52.648;1.214;2022-07-06T14:40:32;3.72;;;1.13;;
66380;SDS011;53177;52.648;1.214;2022-07-06T14:42:59;3.65;;;1.10;;
66380;SDS011;53177;52.648;1.214;2022-07-06T14:45:25;3.78;;;0.90;;
66380;SDS011;53177;52.648;1.214;2022-07-06T14:47:51;3.63;;;0.90;;
66380;SDS011;53177;52.648;1.214;2022-07-06T14:50:17;3.10;;;0.88;;
66380;SDS011;53177;52.648;1.214;2022-07-06T14:52:48;2.47;;;0.80;;
66380;SDS011;53177;52.648;1.214;2022-07-06T14:55:14;3.25;;;0.90;;
66380;SDS011;53177;52.648;1.214;2022-07-06T14:57:39;3.00;;;0.80;;
66380;SDS011;53177;52.648;1.214;2022-07-06T15:00:05;3.25;;;0.90;;
66380;SDS011;53177;52.648;1.214;2022-07-06T15:02:31;4.10;;;0.83;;
66380;SDS011;53177;52.648;1.214;2022-07-06T15:04:56;3.23;;;1.00;;
66380;SDS011;53177;52.648;1.214;2022-07-06T15:07:22;4.32;;;0.80;;
66380;SDS011;53177;52.648;1.214;2022-07-06T15:09:47;2.77;;;0.77;;
66380;SDS011;53177;52.648;1.214;2022-07-06T15:12:13;3.90;;;0.90;;
66380;SDS011;53177;52.648;1.214;2022-07-06T15:14:38;3.30;;;0.90;;